Latest Coastal Weather Observations for Wilsons Promontory

IDT60701

Issued at 4:11 pm EST Tuesday 24 May 2016 (issued every 10 minutes, with the page automatically refreshed every 10 minutes)

About coastal observations | Map of coastal stations | Coastal observations for TAS | Marine services | Other Formats
Station Details ID: 085096 Name: WILSONS PROMONTORY LIGHTHOUSE Lat: -39.13 Lon: 146.42 Height: 95.0 m
Data from the previous 72 hours. | See also: Recent months at Wilsons Promontory
Date/Time
EST
Temp

°C
Wind Pressure Rain
since 9am
mm
Weather Cloud Vis
km
Sea
Height
m
Swell
Dir
 
Speed
knots
Gust
knots
hPa Trend Height
m
Period
s
Dir
24/04:00pm 12.6 W 24 34 1016.5 - 0.0 - - - - - - -
24/03:54pm 12.7 W 23 33 1016.1 - 0.0 - - - - - - -
24/03:30pm 12.7 W 23 31 1016.1 - 0.0 - - - - - - -
24/03:02pm 12.9 W 23 33 1015.8 - 0.0 - - - - - - -
24/03:00pm 12.9 W 24 33 1015.8 - 0.0 - - - - - - -
24/02:34pm 13.0 W 23 33 1015.7 - 0.0 - - - - - - -
24/02:30pm 13.1 W 23 32 1015.8 - 0.0 - - - - - - -
24/02:18pm 13.1 W 23 33 1015.7 - 0.0 - - - - - - -
24/02:00pm 13.2 W 26 35 1015.1 - 0.0 - - - - - - -
24/01:30pm 13.2 W 25 37 1015.2 - 0.0 - - - - - - -
24/01:00pm 13.6 W 24 36 1015.5 - 0.0 - - - - - - -
24/12:30pm 13.3 W 26 37 1015.2 - 0.0 - - - - - - -
24/12:00pm 13.4 W 27 37 1015.6 - 0.0 - - - - - - -
24/11:39am 13.7 W 26 36 1015.6 - 0.0 - - - - - - -
24/11:30am 13.7 W 24 33 1015.9 - 0.0 - - - - - - -
24/11:00am 13.2 WSW 27 43 1015.7 - 0.0 - - - - - - -
24/10:30am 13.5 WSW 32 43 1015.9 - 0.0 - - - - - - -
24/10:00am 13.5 WSW 29 40 1015.9 - 0.0 - - - - - - -
24/09:30am 13.3 WSW 34 45 1015.4 - 0.0 - - - - - - -
24/09:00am 13.1 WSW 31 46 1015.3 - 4.6 - - - - - - -
24/08:30am 12.9 WSW 43 49 1014.3 - 4.6 - - - - - - -
24/08:23am 12.9 WSW 42 46 1014.8 - 4.6 - - - - - - -
24/08:00am 12.2 W 30 43 1015.2 - 4.6 - - - - - - -
24/07:34am 12.4 WSW 32 50 1014.5 - 4.6 - - - - - - -
24/07:31am 12.5 WSW 45 50 1013.8 - 4.6 - - - - - - -
24/07:30am 12.8 WSW 33 49 1013.9 - 4.6 - - - - - - -
24/07:00am 12.8 W 32 42 1013.8 - 4.6 - - - - - - -
24/06:53am 12.8 W 32 42 1013.7 - 4.6 - - - - - - -
24/06:48am 12.5 WSW 30 50 1013.8 - 4.6 - - - - - - -
24/06:33am 12.4 WSW 41 51 1013.3 - 4.6 - - - - - - -
24/06:30am 12.6 WSW 44 51 1013.5 - 4.6 - - - - - - -
24/06:10am 12.3 WSW 42 49 1013.2 - 4.6 - - - - - - -
24/06:06am 11.8 W 28 49 1013.7 - 4.6 - - - - - - -
24/06:05am 11.9 W 27 51 1013.9 - 4.6 - - - - - - -
24/06:00am 11.6 W 39 54 1013.3 - 4.6 - - - - - - -
24/05:55am 12.3 WSW 38 54 1012.5 - 4.6 - - - - - - -
24/05:30am 11.6 W 29 41 1013.5 - 4.6 - - - - - - -
24/05:15am 12.6 W 31 54 1012.9 - 4.2 - - - - - - -
24/05:00am 12.6 W 30 40 1013.5 - 4.2 - - - - - - -
24/04:30am 12.3 W 24 34 1013.3 - 4.2 - - - - - - -
24/04:00am 12.5 W 22 33 1013.8 - 3.6 - - - - - - -
24/03:37am 12.4 W 24 34 1013.9 - 3.4 - - - - - - -
24/03:30am 12.8 W 27 34 1013.8 - 3.4 - - - - - - -
24/03:00am 12.7 W 26 37 1014.1 - 3.4 - - - - - - -
24/02:46am 12.7 W 25 35 1014.2 - 3.4 - - - - - - -
24/02:30am 12.6 W 28 36 1014.1 - 3.4 - - - - - - -
24/02:17am 12.6 W 25 35 1014.2 - 3.4 - - - - - - -
24/02:00am 12.5 W 27 36 1014.1 - 3.4 - - - - - - -
24/01:43am 12.5 W 24 34 1014.3 - 3.4 - - - - - - -
24/01:30am 12.4 W 24 32 1014.4 - 3.4 - - - - - - -
24/01:00am 12.5 W 19 29 1014.9 - 3.4 - - - - - - -
24/12:43am 12.6 W 22 32 1014.8 - 3.4 - - - - - - -
24/12:30am 12.4 W 24 31 1014.8 - 3.4 - - - - - - -
24/12:00am 12.4 W 18 27 1015.2 - 3.4 - - - - - - -
 
Date/Time
EST
Temp

°C
Wind Pressure Rain
since 9am
mm
Weather Cloud Vis
km
Sea
Height
m
Swell
Dir
 
Speed
knots
Gust
knots
hPa Trend Height
m
Period
s
Dir
23/11:30pm 12.7 W 16 29 1015.3 - 3.4 - - - - - - -
23/11:03pm 12.6 W 22 32 1015.3 - 3.4 - - - - - - -
23/11:00pm 12.7 W 23 32 1015.1 - 3.4 - - - - - - -
23/10:33pm 12.7 W 24 34 1015.1 - 3.4 - - - - - - -
23/10:30pm 12.7 W 25 34 1015.1 - 3.4 - - - - - - -
23/10:00pm 12.7 W 22 32 1015.0 - 3.4 - - - - - - -
23/09:30pm 12.7 W 27 38 1014.9 - 3.4 - - - - - - -
23/09:23pm 12.9 W 27 38 1014.6 - 3.4 - - - - - - -
23/09:00pm 12.6 W 27 35 1014.9 - 3.4 - - - - - - -
23/08:32pm 12.9 WSW 30 44 1014.2 - 3.4 - - - - - - -
23/08:30pm 12.9 WSW 29 42 1014.2 - 3.4 - - - - - - -
23/08:28pm 12.9 W 28 42 1014.3 - 3.4 - - - - - - -
23/08:06pm 12.9 WSW 39 49 1013.7 - 3.4 - - - - - - -
23/08:02pm 12.9 WSW 42 49 1013.5 - 3.4 - - - - - - -
23/08:00pm 12.9 W 27 45 1014.1 - 3.4 - - - - - - -
23/07:58pm 13.0 W 26 45 1014.1 - 3.4 - - - - - - -
23/07:54pm 13.0 WSW 37 47 1013.8 - 3.4 - - - - - - -
23/07:46pm 13.0 WSW 43 47 1013.5 - 3.4 - - - - - - -
23/07:30pm 12.9 W 29 47 1013.9 - 3.4 - - - - - - -
23/07:00pm 12.8 W 27 39 1013.8 - 3.4 - - - - - - -
23/06:30pm 12.8 W 27 39 1013.1 - 3.4 - - - - - - -
23/06:00pm 12.5 W 24 36 1013.6 - 3.4 - - - - - - -
23/05:30pm 12.7 W 31 41 1012.7 - 3.4 - - - - - - -
23/05:00pm 12.7 W 32 43 1012.3 - 3.4 - - - - - - -
23/04:30pm 12.9 W 29 42 1012.1 - 3.4 - - - - - - -
23/04:00pm 12.8 W 30 48 1011.8 - 3.4 - - - - - - -
23/03:30pm 12.7 W 29 40 1012.2 - 3.4 - - - - - - -
23/03:08pm 12.6 W 35 46 1011.8 - 3.4 - - - - - - -
23/03:07pm 12.7 W 39 46 1011.5 - 3.4 - - - - - - -
23/03:00pm 12.1 W 26 44 1012.1 - 3.4 - - - - - - -
23/02:56pm 11.7 W 25 54 1012.1 - 3.4 - - - - - - -
23/02:30pm 12.7 W 36 47 1011.4 - 3.2 - - - - - - -
23/02:00pm 11.8 W 37 50 1011.0 - 3.2 - - - - - - -
23/01:53pm 11.8 W 35 50 1010.3 - 3.2 - - - - - - -
23/01:44pm 13.0 WSW 23 55 1011.4 - 3.2 - - - - - - -
23/01:39pm 12.8 W 40 55 1010.8 - 3.2 - - - - - - -
23/01:30pm 12.7 W 26 47 1011.6 - 3.2 - - - - - - -
23/01:29pm 12.7 W 25 47 1011.5 - 3.2 - - - - - - -
23/01:00pm 11.6 W 37 55 1011.2 - 3.2 - - - - - - -
23/12:30pm 13.0 W 39 53 1010.2 - 3.2 - - - - - - -
23/12:12pm 13.5 W 36 56 1010.3 - 3.2 - - - - - - -
23/12:00pm 13.3 W 30 44 1010.7 - 3.2 - - - - - - -
23/11:30am 12.2 W 28 39 1011.2 - 3.2 - - - - - - -
23/11:10am 11.2 W 29 57 1011.0 - 3.0 - - - - - - -
23/11:02am 11.0 W 42 57 1010.7 - 2.2 - - - - - - -
23/11:01am 11.6 W 25 57 1010.4 - 2.0 - - - - - - -
23/11:00am 12.6 W 23 41 1011.0 - 1.4 - - - - - - -
23/10:30am 12.6 W 29 41 1010.9 - 1.4 - - - - - - -
23/10:02am 11.3 W 29 47 1010.2 - 1.4 - - - - - - -
23/10:00am 11.2 W 31 54 1010.2 - 1.4 - - - - - - -
23/09:59am 11.4 W 30 54 1010.2 - 1.4 - - - - - - -
23/09:50am 11.3 W 41 51 1009.2 - 0.8 - - - - - - -
23/09:33am 12.0 W 30 45 1009.5 - 0.6 - - - - - - -
23/09:30am 11.9 W 30 39 1009.6 - 0.6 - - - - - - -
23/09:00am 11.1 W 37 54 1009.1 - 18.2 - - - - - - -
23/08:30am 12.7 W 36 53 1008.4 - 17.8 - - - - - - -
23/08:14am 13.1 W 35 51 1008.6 - 17.8 - - - - - - -
23/08:12am 13.2 W 21 51 1009.1 - 17.8 - - - - - - -
23/08:00am 13.2 W 23 40 1009.2 - 17.8 - - - - - - -
23/07:30am 13.3 W 22 41 1008.5 - 17.8 - - - - - - -
23/07:00am 13.3 WNW 23 39 1008.3 - 17.8 - - - - - - -
23/06:30am 13.2 W 23 39 1007.5 - 17.8 - - - - - - -
23/06:00am 13.1 WNW 26 44 1007.6 - 17.8 - - - - - - -
23/05:30am 12.9 WNW 27 55 1007.1 - 17.8 - - - - - - -
23/05:28am 12.8 WNW 26 55 1007.3 - 17.8 - - - - - - -
23/05:00am 13.1 W 22 35 1007.6 - 17.8 - - - - - - -
23/04:30am 13.3 W 25 36 1007.7 - 17.0 - - - - - - -
23/04:00am 12.7 W 27 39 1007.6 - 15.0 - - - - - - -
23/03:30am 13.5 W 27 39 1008.0 - 10.2 - - - - - - -
23/03:00am 13.2 W 26 39 1008.3 - 6.6 - - - - - - -
23/02:54am 13.4 W 26 53 1008.3 - 5.6 - - - - - - -
23/02:50am 13.7 W 40 53 1007.7 - 4.0 - - - - - - -
23/02:48am 15.0 W 23 53 1007.6 - 2.8 - - - - - - -
23/02:30am 17.9 W 19 30 1007.6 - 0.0 - - - - - - -
23/02:28am 18.4 W 18 28 1007.5 - 0.0 - - - - - - -
23/02:00am 21.7 N 12 27 1007.1 - 0.0 - - - - - - -
23/01:31am 22.4 N 15 35 1006.9 - 0.0 - - - - - - -
23/01:30am 22.3 N 14 35 1007.0 - 0.0 - - - - - - -
23/01:00am 22.7 N 16 33 1007.3 - 0.0 - - - - - - -
23/12:30am 23.0 N 16 36 1007.5 - 0.0 - - - - - - -
23/12:00am 23.0 N 17 33 1008.1 - 0.0 - - - - - - -
 
Date/Time
EST
Temp

°C
Wind Pressure Rain
since 9am
mm
Weather Cloud Vis
km
Sea
Height
m
Swell
Dir
 
Speed
knots
Gust
knots
hPa Trend Height
m
Period
s
Dir
22/11:52pm 22.7 N 15 33 1008.3 - 0.0 - - - - - - -
22/11:30pm 22.0 N 14 26 1008.7 - 0.0 - - - - - - -
22/11:01pm 21.9 N 15 29 1009.0 - 0.0 - - - - - - -
22/11:00pm 21.8 N 14 29 1009.0 - 0.0 - - - - - - -
22/10:58pm 21.9 N 15 29 1008.9 - 0.0 - - - - - - -
22/10:30pm 20.5 NNE 13 17 1009.6 - 0.0 - - - - - - -
22/10:00pm 20.4 NNE 14 23 1010.1 - 0.0 - - - - - - -
22/09:45pm 20.7 N 15 30 1010.1 - 0.0 - - - - - - -
22/09:30pm 20.3 N 14 20 1010.2 - 0.0 - - - - - - -
22/09:00pm 20.0 NNE 14 19 1010.6 - 0.0 - - - - - - -
22/08:30pm 18.9 NNE 13 19 1011.1 - 0.0 - - - - - - -
22/08:00pm 17.2 NNE 12 17 1011.4 - 0.0 - - - - - - -
22/07:30pm 16.2 NNE 13 17 1011.6 - 0.0 - - - - - - -
22/07:00pm 15.0 NNE 11 14 1012.3 - 0.0 - - - - - - -
22/06:30pm 15.1 NNE 13 14 1012.4 - 0.0 - - - - - - -
22/06:00pm 15.1 NNE 11 13 1012.6 - 0.0 - - - - - - -
22/05:30pm 15.7 NNE 12 14 1012.6 - 0.0 - - - - - - -
22/05:00pm 15.6 NNE 11 14 1012.6 - 0.0 - - - - - - -
22/04:30pm 15.1 NNE 9 11 1013.0 - 0.0 - - - - - - -
22/04:00pm 15.5 NNE 11 13 1012.9 - 0.0 - - - - - - -
22/03:30pm 15.3 NNE 11 14 1013.4 - 0.0 - - - - - - -
22/03:00pm 15.6 NNE 10 12 1013.5 - 0.0 - - - - - - -
22/02:30pm 16.0 NNE 10 12 1013.6 - 0.0 - - - - - - -
22/02:00pm 15.6 NNE 10 12 1013.8 - 0.0 - - - - - - -
22/01:30pm 15.3 N 12 13 1013.9 - 0.0 - - - - - - -
22/01:00pm 15.5 N 12 15 1014.2 - 0.0 - - - - - - -
22/12:30pm 15.1 NNE 11 14 1014.8 - 0.0 - - - - - - -
22/12:00pm 15.1 NE 9 13 1015.2 - 0.0 - - - - - - -
22/11:30am 14.9 NE 12 15 1015.8 - 0.0 - - - - - - -
22/11:00am 15.2 NNE 13 16 1016.3 - 0.0 - - - - - - -
22/10:30am 15.4 NE 17 20 1016.7 - 0.0 - - - - - - -
22/10:00am 15.3 NE 15 18 1016.9 - 0.0 - - - - - - -
22/09:30am 15.7 NE 15 16 1017.3 - 0.0 - - - - - - -
22/09:00am 14.6 NE 16 18 1017.5 - 0.0 - - - - - - -
22/08:30am 14.3 NE 15 17 1017.8 - 0.0 - - - - - - -
22/08:00am 14.1 NNE 14 16 1018.1 - 0.0 - - - - - - -
22/07:30am 13.7 NNE 14 17 1017.8 - 0.0 - - - - - - -
22/07:00am 13.7 NE 11 14 1018.2 - 0.0 - - - - - - -
22/06:30am 13.8 NNE 7 10 1018.3 - 0.0 - - - - - - -
22/06:00am 14.0 NNE 11 14 1018.3 - 0.0 - - - - - - -
22/05:30am 13.9 NNE 10 14 1018.3 - 0.0 - - - - - - -
22/05:00am 13.8 NNE 13 15 1018.3 - 0.0 - - - - - - -
22/04:30am 13.7 N 7 9 1018.5 - 0.0 - - - - - - -
22/04:00am 13.8 NNE 10 13 1018.5 - 0.0 - - - - - - -
22/03:30am 13.9 NNE 16 18 1018.5 - 0.0 - - - - - - -
22/03:00am 14.0 NNE 14 17 1018.9 - 0.0 - - - - - - -
22/02:30am 13.8 NNE 14 17 1019.2 - 0.0 - - - - - - -
22/02:00am 13.6 NNE 17 21 1019.0 - 0.0 - - - - - - -
22/01:30am 13.5 N 16 21 1019.4 - 0.0 - - - - - - -
22/01:00am 13.6 N 18 24 1019.7 - 0.0 - - - - - - -
22/12:30am 13.5 NNE 17 23 1019.9 - 0.0 - - - - - - -
22/12:00am 13.4 NNE 15 22 1020.4 - 0.0 - - - - - - -
 
Date/Time
EST
Temp

°C
Wind Pressure Rain
since 9am
mm
Weather Cloud Vis
km
Sea
Height
m
Swell
Dir
 
Speed
knots
Gust
knots
hPa Trend Height
m
Period
s
Dir
21/11:30pm 13.5 NNE 15 21 1020.8 - 0.0 - - - - - - -
21/11:00pm 13.5 N 14 20 1021.2 - 0.0 - - - - - - -
21/10:30pm 13.5 N 14 22 1021.3 - 0.0 - - - - - - -
21/10:00pm 13.3 NNE 14 18 1021.7 - 0.0 - - - - - - -
21/09:30pm 13.4 NNE 14 18 1021.8 - 0.0 - - - - - - -
21/09:00pm 13.4 NNE 14 18 1021.8 - 0.0 - - - - - - -
21/08:30pm 13.4 N 14 20 1021.7 - 0.0 - - - - - - -
21/08:00pm 13.6 N 14 19 1021.8 - 0.0 - - - - - - -
21/07:30pm 13.6 NNE 13 17 1021.7 - 0.0 - - - - - - -
21/07:00pm 13.7 N 12 16 1021.7 - 0.0 - - - - - - -
21/06:30pm 13.7 NNE 12 16 1021.5 - 0.0 - - - - - - -
21/06:00pm 13.8 N 11 15 1021.6 - 0.0 - - - - - - -
21/05:30pm 13.8 NNE 10 13 1021.6 - 0.0 - - - - - - -
21/05:00pm 13.9 NNE 9 11 1021.7 - 0.0 - - - - - - -
21/04:30pm 14.0 NNE 8 10 1021.8 - 0.0 - - - - - - -

Other Formats:

Comma delimited format used in spreadsheet applications
http://www.bom.gov.au/fwo/IDT60701/IDT60701.94893.axf

JavaScript Object Notation format (JSON) in row-major order
http://www.bom.gov.au/fwo/IDT60701/IDT60701.94893.json